Wiley, Georgia
Current Conditions -  °F | °C
As of 11:35 AM on Tuesday 27 Jan 2015 (Local Time) from KTOC Reporting Station
Scattered Clouds Scattered Clouds  
Wind Chill: 42°   Ceiling: Unl
Heat Index: 47°   Visibility: 10mi
Dew Point: 27°   Wind: 12mph
Humidity: 45%   Direction: 350°N
Pressure: 29.88"   Gusts: NA
Location:  34.8°N, 83.42°W
Report Text: KTOC 271635Z AUTO 35010KT 10SM SCT048 09/M03 A2988 RMK AO2 T00861029
Loading
Personal Weather Stations






























Interactive Weather Map New forecast layout! Learn more

10-Day Weather Forecast

Advertisements
Track Severe Weather on mobile